Time;durP1;ratioP1;P1;durP2;ratioP2;P2;SDS_P1;SDS_P2;PMS_P1;PMS_P2;Temp;Humidity;BMP_temperature;BMP_pressure;BME280_temperature;BME280_humidity;BME280_pressure;Samples;Min_cycle;Max_cycle;Signal;HPM_P1;HPM_P2
2023/03/06 00:01:26;;;;;;;0.57;0.20;;;3.50;99.90;;;;;;5033145;28;20048;-76
2023/03/06 00:03:52;;;;;;;1.63;0.30;;;4.10;99.90;;;;;;5033216;28;20044;-77
2023/03/06 00:06:18;;;;;;;0.30;0.20;;;3.50;99.90;;;;;;5050975;28;20044;-76
2023/03/06 00:08:43;;;;;;;0.52;0.20;;;3.30;99.90;;;;;;5016007;28;20423;-76
2023/03/06 00:11:13;;;;;;;1.25;0.10;;;3.30;99.90;;;;;;5033298;28;20056;-77
2023/03/06 00:13:39;;;;;;;0.20;0.20;;;3.80;99.90;;;;;;5033928;28;20392;-76
2023/03/06 00:16:05;;;;;;;1.45;0.22;;;3.40;99.90;;;;;;5050860;28;20037;-75
2023/03/06 00:18:32;;;;;;;0.60;0.20;;;3.10;99.90;;;;;;5032891;28;20474;-76
2023/03/06 00:20:58;;;;;;;1.08;0.20;;;3.10;99.90;;;;;;5050764;28;20045;-76
2023/03/06 00:23:24;;;;;;;2.10;0.30;;;3.30;99.90;;;;;;5050710;28;20085;-75
2023/03/06 00:25:50;;;;;;;0.60;0.20;;;4.00;99.90;;;;;;5050456;28;20385;-75
2023/03/06 00:28:16;;;;;;;1.05;0.30;;;3.70;99.90;;;;;;5050650;28;20081;-78
2023/03/06 00:30:42;;;;;;;1.23;0.28;;;2.90;99.90;;;;;;5050399;28;20090;-76
2023/03/06 00:33:08;;;;;;;4.07;0.40;;;3.00;99.90;;;;;;5050362;28;20033;-75
2023/03/06 00:35:34;;;;;;;0.10;0.10;;;3.10;99.90;;;;;;5050565;28;20048;-74
2023/03/06 00:38:00;;;;;;;0.30;0.20;;;3.10;99.90;;;;;;5050101;28;20056;-74
2023/03/06 00:40:26;;;;;;;0.40;0.20;;;2.90;99.90;;;;;;5033239;28;20037;-74
2023/03/06 00:42:51;;;;;;;0.20;0.20;;;2.90;99.90;;;;;;5050177;28;20033;-74
2023/03/06 00:45:17;;;;;;;0.55;0.20;;;2.40;99.90;;;;;;5016490;28;20055;-74
2023/03/06 00:47:43;;;;;;;0.40;0.20;;;2.40;99.90;;;;;;5032409;28;20037;-74
2023/03/06 00:50:09;;;;;;;0.68;0.30;;;3.20;99.90;;;;;;5032703;28;20474;-74
2023/03/06 00:52:35;;;;;;;1.00;0.30;;;2.10;99.90;;;;;;5032337;28;20045;-74
2023/03/06 00:55:01;;;;;;;0.50;0.30;;;2.10;99.90;;;;;;5050094;28;20037;-73
2023/03/06 00:57:29;;;;;;;1.35;0.40;;;2.10;99.90;;;;;;5050248;28;20489;-74
2023/03/06 00:59:55;;;;;;;0.47;0.22;;;2.80;99.90;;;;;;5032611;28;20043;-75
2023/03/06 01:02:21;;;;;;;0.40;0.30;;;2.40;99.90;;;;;;5015751;28;20041;-75
2023/03/06 01:04:46;;;;;;;0.65;0.30;;;2.90;99.90;;;;;;5050119;28;20431;-74
2023/03/06 01:07:12;;;;;;;0.65;0.45;;;2.20;99.90;;;;;;5050186;28;20049;-74
2023/03/06 01:09:38;;;;;;;1.15;0.30;;;2.00;99.90;;;;;;5049457;28;20557;-74
2023/03/06 01:12:04;;;;;;;0.73;0.30;;;2.50;99.90;;;;;;5049981;28;20045;-75
2023/03/06 01:14:30;;;;;;;0.90;0.30;;;1.70;99.90;;;;;;5032516;28;20049;-75
2023/03/06 01:16:56;;;;;;;0.50;0.40;;;1.70;99.90;;;;;;5015642;28;20545;-76
2023/03/06 01:19:22;;;;;;;0.98;0.40;;;1.80;99.90;;;;;;5032312;28;20128;-77
2023/03/06 01:21:47;;;;;;;1.67;0.40;;;2.40;99.90;;;;;;5049807;28;20037;-76
2023/03/06 01:24:13;;;;;;;1.27;0.40;;;2.50;99.90;;;;;;5032808;28;20037;-77
2023/03/06 01:26:39;;;;;;;1.77;0.70;;;2.10;99.90;;;;;;5050497;28;20060;-79
2023/03/06 01:29:05;;;;;;;0.50;0.40;;;2.90;99.90;;;;;;5032929;28;20530;-81
2023/03/06 01:31:30;;;;;;;3.10;0.40;;;1.60;99.90;;;;;;5015938;28;20048;-83
2023/03/06 01:33:56;;;;;;;0.50;0.40;;;2.40;99.90;;;;;;5033044;28;20044;-84
2023/03/06 01:36:22;;;;;;;0.50;0.38;;;2.30;99.90;;;;;;5049765;28;20040;-83
2023/03/06 01:38:48;;;;;;;0.70;0.40;;;2.30;99.90;;;;;;5031778;28;20040;-82
2023/03/06 01:41:14;;;;;;;1.00;0.45;;;2.00;99.90;;;;;;5015870;28;20119;-82
2023/03/06 01:43:45;;;;;;;0.60;0.38;;;1.80;99.90;;;;;;5031764;28;20049;-84
2023/03/06 01:46:27;;;;;;;0.40;0.40;;;1.60;99.90;;;;;;5015740;28;20048;-87
2023/03/06 01:49:11;;;;;;;0.63;0.40;;;1.50;99.90;;;;;;5032267;28;20084;-91
2023/03/06 01:51:42;;;;;;;0.50;0.40;;;1.80;99.90;;;;;;5032814;28;20075;-91
2023/03/06 01:54:16;;;;;;;0.60;0.30;;;1.60;99.90;;;;;;5032452;28;20102;-91
2023/03/06 01:56:45;;;;;;;0.68;0.40;;;1.50;99.90;;;;;;5032348;28;20080;-91
2023/03/06 01:59:12;;;;;;;0.68;0.32;;;1.60;99.90;;;;;;5032750;28;20084;-90
2023/03/06 02:01:38;;;;;;;0.43;0.30;;;2.10;99.90;;;;;;5035027;28;20037;-90
2023/03/06 02:04:04;;;;;;;0.70;0.40;;;2.40;99.90;;;;;;5052860;28;20101;-87
2023/03/06 02:06:34;;;;;;;0.40;0.40;;;2.20;99.90;;;;;;5018775;28;20078;-87
2023/03/06 02:09:01;;;;;;;0.52;0.40;;;2.70;99.90;;;;;;5034728;28;20091;-84
2023/03/06 02:11:27;;;;;;;1.15;0.40;;;2.70;99.90;;;;;;5035341;28;20051;-83
2023/03/06 02:13:54;;;;;;;0.52;0.45;;;1.60;99.90;;;;;;5035295;28;20044;-82
2023/03/06 02:16:27;;;;;;;0.73;0.30;;;1.60;99.90;;;;;;5052748;28;20049;-81
2023/03/06 02:18:53;;;;;;;1.33;0.65;;;2.80;99.90;;;;;;5034921;28;20055;-81
2023/03/06 02:21:27;;;;;;;0.77;0.40;;;1.70;99.90;;;;;;5052555;28;20049;-80
2023/03/06 02:23:56;;;;;;;0.73;0.40;;;2.80;99.90;;;;;;5052957;28;20373;-79
2023/03/06 02:26:23;;;;;;;1.67;0.40;;;2.00;99.90;;;;;;5052490;28;20086;-78
2023/03/06 02:28:48;;;;;;;0.93;0.40;;;1.80;99.90;;;;;;5034998;28;20041;-78
2023/03/06 02:31:28;;;;;;;1.33;0.40;;;1.80;99.90;;;;;;5034646;28;20520;-78
2023/03/06 02:34:25;;;;;;;0.90;0.40;;;1.60;99.90;;;;;;5036136;28;20040;-77
2023/03/06 02:36:56;;;;;;;0.75;0.40;;;2.50;99.90;;;;;;5034507;28;20049;-78
2023/03/06 02:39:25;;;;;;;0.80;0.50;;;2.00;99.90;;;;;;5017798;28;20093;-78
2023/03/06 02:41:51;;;;;;;0.90;0.43;;;1.80;99.90;;;;;;5018435;28;20080;-78
2023/03/06 02:44:17;;;;;;;0.93;0.43;;;2.40;99.90;;;;;;5052095;28;20149;-79
2023/03/06 02:46:42;;;;;;;1.60;0.60;;;1.90;99.90;;;;;;5052000;28;20047;-79
2023/03/06 02:49:08;;;;;;;0.70;0.50;;;1.70;99.90;;;;;;5052177;28;20045;-79
2023/03/06 02:51:35;;;;;;;1.23;0.60;;;1.80;99.90;;;;;;5018193;28;20042;-80
2023/03/06 02:54:00;;;;;;;1.30;0.40;;;2.50;99.90;;;;;;5051845;28;20048;-80
2023/03/06 02:56:26;;;;;;;0.93;0.50;;;1.80;99.90;;;;;;5034119;28;20063;-80
2023/03/06 02:58:52;;;;;;;0.70;0.50;;;1.80;99.90;;;;;;5034774;28;20365;-80
2023/03/06 03:01:17;;;;;;;1.70;0.57;;;1.70;99.90;;;;;;5034349;28;20048;-81
2023/03/06 03:03:43;;;;;;;1.75;0.90;;;2.40;99.90;;;;;;5035113;28;20040;-80
2023/03/06 03:06:09;;;;;;;0.75;0.50;;;2.10;99.90;;;;;;5034275;28;20139;-81
2023/03/06 03:08:35;;;;;;;0.80;0.50;;;2.10;99.90;;;;;;5051556;28;20127;-81
2023/03/06 03:11:02;;;;;;;1.42;0.50;;;2.70;99.90;;;;;;5050882;28;20080;-81
2023/03/06 03:13:28;;;;;;;0.93;0.40;;;2.40;99.90;;;;;;5052009;28;20386;-81
2023/03/06 03:15:59;;;;;;;0.57;0.38;;;2.20;99.90;;;;;;5018823;28;20045;-82
2023/03/06 03:18:25;;;;;;;0.70;0.40;;;2.40;99.90;;;;;;5034123;28;20085;-82
2023/03/06 03:20:51;;;;;;;1.30;0.40;;;3.00;99.90;;;;;;5033881;28;20061;-82
2023/03/06 03:23:16;;;;;;;1.25;0.40;;;2.60;99.90;;;;;;5034065;28;20445;-84
2023/03/06 03:25:42;;;;;;;1.33;0.50;;;3.70;99.90;;;;;;5001218;28;20041;-84
2023/03/06 03:28:08;;;;;;;0.95;0.32;;;3.10;99.90;;;;;;5017583;28;20045;-84
2023/03/06 03:30:33;;;;;;;1.02;0.30;;;3.40;99.90;;;;;;5034214;28;20029;-84
2023/03/06 03:32:59;;;;;;;0.57;0.32;;;3.60;99.90;;;;;;5051751;28;20098;-84
2023/03/06 03:35:25;;;;;;;1.13;0.30;;;2.10;99.90;;;;;;5017873;28;20041;-83
2023/03/06 03:37:51;;;;;;;0.40;0.20;;;2.80;99.90;;;;;;5034344;28;20124;-83
2023/03/06 03:40:17;;;;;;;1.33;0.30;;;1.90;99.90;;;;;;5017728;28;20084;-83
2023/03/06 03:42:43;;;;;;;0.52;0.30;;;2.10;99.90;;;;;;5000823;28;20040;-84
2023/03/06 03:45:09;;;;;;;1.80;0.30;;;2.00;99.90;;;;;;5033821;28;20037;-83
2023/03/06 03:47:35;;;;;;;1.42;0.30;;;1.90;99.90;;;;;;5033895;28;20045;-83
2023/03/06 03:50:00;;;;;;;0.60;0.30;;;2.40;99.90;;;;;;5033959;28;20473;-83
2023/03/06 03:52:26;;;;;;;3.10;0.40;;;1.80;99.90;;;;;;5001288;28;20040;-83
2023/03/06 03:54:52;;;;;;;0.85;0.20;;;1.70;99.90;;;;;;5001036;28;20044;-83
2023/03/06 03:57:18;;;;;;;1.15;0.25;;;2.10;99.90;;;;;;5034366;28;20041;-83
2023/03/06 03:59:43;;;;;;;0.25;0.20;;;2.10;99.90;;;;;;5001121;28;20037;-84
2023/03/06 04:02:09;;;;;;;0.82;0.30;;;2.20;99.90;;;;;;5033680;28;20385;-85
2023/03/06 04:04:35;;;;;;;0.40;0.30;;;2.10;99.90;;;;;;5051235;28;20048;-85
2023/03/06 04:07:00;;;;;;;0.77;0.40;;;1.90;99.90;;;;;;5033559;28;20041;-85
2023/03/06 04:09:26;;;;;;;1.40;0.38;;;2.80;99.90;;;;;;5033230;28;20041;-84
2023/03/06 04:11:52;;;;;;;0.60;0.30;;;3.40;99.90;;;;;;5033612;28;20378;-84
2023/03/06 04:14:17;;;;;;;1.05;0.30;;;3.30;99.90;;;;;;5017174;28;20041;-84
2023/03/06 04:16:43;;;;;;;0.77;0.30;;;2.50;99.90;;;;;;5017211;28;20045;-83
2023/03/06 04:19:10;;;;;;;1.45;0.30;;;1.80;99.90;;;;;;5033222;28;20167;-82
2023/03/06 04:21:36;;;;;;;0.60;0.30;;;1.70;99.90;;;;;;5017472;28;20048;-83
2023/03/06 04:24:02;;;;;;;0.68;0.30;;;1.90;99.90;;;;;;5032997;28;20418;-82
2023/03/06 04:26:27;;;;;;;0.63;0.30;;;1.80;99.90;;;;;;5033489;28;20041;-82
2023/03/06 04:28:54;;;;;;;0.80;0.30;;;2.00;99.90;;;;;;5017064;28;20045;-82
2023/03/06 04:31:21;;;;;;;1.08;0.40;;;1.80;99.90;;;;;;5033365;28;20049;-82
2023/03/06 04:33:47;;;;;;;0.52;0.40;;;1.80;99.90;;;;;;5033762;28;20070;-82
2023/03/06 04:36:31;;;;;;;1.75;0.47;;;1.70;99.90;;;;;;5034151;28;20038;-83
2023/03/06 04:38:57;;;;;;;1.65;0.43;;;1.60;99.90;;;;;;5032440;28;20060;-83
2023/03/06 04:41:23;;;;;;;0.80;0.40;;;2.00;99.90;;;;;;5032887;28;20033;-82
2023/03/06 04:43:49;;;;;;;1.40;0.40;;;1.60;99.90;;;;;;5033166;28;20093;-82
2023/03/06 04:46:15;;;;;;;0.57;0.30;;;1.90;99.90;;;;;;5033125;28;20044;-83
2023/03/06 04:48:41;;;;;;;2.45;0.63;;;3.00;99.90;;;;;;5016661;28;20496;-83
2023/03/06 04:51:08;;;;;;;1.23;0.40;;;1.90;99.90;;;;;;5050879;28;20041;-82
2023/03/06 04:53:34;;;;;;;1.67;0.50;;;2.30;99.90;;;;;;5033561;28;20076;-81
2023/03/06 04:55:59;;;;;;;0.60;0.30;;;1.60;99.90;;;;;;5016128;28;20140;-82
2023/03/06 04:58:25;;;;;;;1.98;0.40;;;3.00;99.90;;;;;;5016619;28;20089;-82
2023/03/06 05:00:51;;;;;;;1.52;0.40;;;1.60;99.90;;;;;;5017850;28;20041;-82
2023/03/06 05:03:16;;;;;;;1.10;0.40;;;3.00;99.90;;;;;;5033677;28;20381;-81
2023/03/06 05:05:42;;;;;;;1.05;0.50;;;1.90;99.90;;;;;;5033138;28;20052;-81
2023/03/06 05:08:14;;;;;;;1.67;0.52;;;2.50;99.90;;;;;;5032413;28;20182;-82
2023/03/06 05:10:40;;;;;;;1.08;0.40;;;3.20;99.90;;;;;;5033102;28;20053;-81
2023/03/06 05:13:06;;;;;;;0.80;0.40;;;2.80;99.90;;;;;;5032742;28;20084;-80
2023/03/06 05:15:32;;;;;;;1.02;0.30;;;1.60;99.90;;;;;;5032801;28;20105;-80
2023/03/06 05:17:58;;;;;;;0.88;0.45;;;1.60;99.90;;;;;;5016362;28;20131;-80
2023/03/06 05:20:24;;;;;;;0.63;0.50;;;1.70;99.90;;;;;;5016112;28;20056;-81
2023/03/06 05:22:49;;;;;;;2.05;0.50;;;1.70;99.90;;;;;;5032459;28;20045;-80
2023/03/06 05:25:15;;;;;;;1.85;0.47;;;1.60;99.90;;;;;;5032995;28;20056;-81
2023/03/06 05:27:41;;;;;;;1.17;0.50;;;1.70;99.90;;;;;;5032319;28;20048;-81
2023/03/06 05:30:10;;;;;;;3.38;0.45;;;2.60;99.90;;;;;;5032545;28;20041;-81
2023/03/06 05:32:36;;;;;;;1.30;0.50;;;1.50;99.90;;;;;;5032495;28;20080;-80
2023/03/06 05:35:03;;;;;;;1.42;0.40;;;1.50;99.90;;;;;;5034030;28;20083;-80
2023/03/06 05:37:29;;;;;;;2.97;0.50;;;1.50;99.90;;;;;;5019964;28;20048;-80
2023/03/06 05:39:54;;;;;;;2.38;0.55;;;1.30;99.90;;;;;;5053029;28;20045;-81
2023/03/06 05:42:20;;;;;;;2.63;0.75;;;1.90;99.90;;;;;;5035780;28;20080;-80
2023/03/06 05:44:46;;;;;;;1.70;0.65;;;2.80;99.90;;;;;;5019455;28;20489;-81
2023/03/06 05:47:12;;;;;;;1.52;0.60;;;2.70;99.90;;;;;;5035678;28;20422;-80
2023/03/06 05:49:38;;;;;;;1.70;0.70;;;2.30;99.90;;;;;;5035777;28;20124;-80
2023/03/06 05:52:05;;;;;;;1.15;0.55;;;1.30;99.90;;;;;;5035654;28;20080;-80
2023/03/06 05:54:35;;;;;;;2.90;0.70;;;1.40;99.90;;;;;;5035702;28;20045;-81
2023/03/06 05:57:03;;;;;;;2.08;0.77;;;1.40;99.90;;;;;;5019589;28;20355;-80
2023/03/06 05:59:31;;;;;;;1.60;0.50;;;1.70;99.90;;;;;;5035658;28;20051;-80
2023/03/06 06:01:57;;;;;;;1.88;0.77;;;2.00;99.90;;;;;;5035648;28;20136;-80
2023/03/06 06:04:25;;;;;;;3.03;0.95;;;2.40;99.90;;;;;;5035848;28;20127;-80
2023/03/06 06:06:58;;;;;;;1.85;0.73;;;1.70;99.90;;;;;;5035778;28;20041;-80
2023/03/06 06:09:25;;;;;;;1.42;0.70;;;1.40;99.90;;;;;;5018499;28;20040;-81
2023/03/06 06:11:56;;;;;;;1.83;0.70;;;1.70;99.90;;;;;;5035912;28;20052;-81
2023/03/06 06:14:22;;;;;;;3.60;0.85;;;3.00;99.90;;;;;;5053263;28;20067;-81
2023/03/06 06:16:48;;;;;;;2.47;1.23;;;2.90;99.90;;;;;;5035891;28;20033;-80
2023/03/06 06:19:17;;;;;;;2.47;0.88;;;1.80;99.90;;;;;;5031742;28;20052;-80
2023/03/06 06:21:45;;;;;;;2.30;1.20;;;1.90;99.90;;;;;;5032047;28;20038;-80
2023/03/06 06:24:11;;;;;;;2.78;1.20;;;2.60;99.90;;;;;;5032255;28;20045;-80
2023/03/06 06:26:37;;;;;;;1.90;1.08;;;2.20;99.90;;;;;;5015499;28;20535;-81
2023/03/06 06:29:04;;;;;;;1.75;0.90;;;1.40;99.90;;;;;;5031679;28;20057;-80
2023/03/06 06:31:30;;;;;;;5.53;0.90;;;2.30;99.90;;;;;;5032040;28;20049;-81
2023/03/06 06:33:55;;;;;;;2.42;1.00;;;1.20;99.90;;;;;;5016240;28;20485;-80
2023/03/06 06:36:21;;;;;;;3.55;1.35;;;2.60;99.90;;;;;;4999623;28;20037;-80
2023/03/06 06:38:48;;;;;;;4.45;1.42;;;3.00;99.90;;;;;;5032208;28;20482;-81
2023/03/06 06:41:14;;;;;;;2.50;1.02;;;1.30;99.90;;;;;;5031520;28;20041;-81
2023/03/06 06:43:39;;;;;;;4.88;1.55;;;2.60;99.90;;;;;;5031730;28;20037;-81
2023/03/06 06:46:05;;;;;;;2.92;1.70;;;2.00;99.90;;;;;;5031344;28;20046;-81
2023/03/06 06:48:31;;;;;;;3.58;1.77;;;1.20;99.90;;;;;;5015250;28;20037;-80
2023/03/06 06:50:58;;;;;;;4.75;2.05;;;2.80;99.90;;;;;;5031163;28;20509;-81
2023/03/06 06:53:24;;;;;;;4.35;1.60;;;1.60;99.90;;;;;;5031290;28;20052;-80
2023/03/06 06:55:49;;;;;;;4.13;2.13;;;1.70;99.90;;;;;;5032576;28;20041;-81
2023/03/06 06:58:16;;;;;;;4.25;2.15;;;1.30;99.90;;;;;;5031218;28;20132;-81
2023/03/06 07:00:42;;;;;;;5.03;2.13;;;2.30;99.90;;;;;;5031234;28;20048;-80
2023/03/06 07:03:11;;;;;;;4.22;1.70;;;1.60;99.90;;;;;;5031153;28;20041;-80
2023/03/06 07:05:36;;;;;;;3.85;1.90;;;1.30;99.90;;;;;;5032376;28;20044;-80
2023/03/06 07:08:02;;;;;;;4.40;1.70;;;1.30;99.90;;;;;;5030834;28;20033;-80
2023/03/06 07:10:28;;;;;;;5.05;2.00;;;2.40;99.90;;;;;;5031188;28;20374;-79
2023/03/06 07:12:55;;;;;;;3.95;1.90;;;1.20;99.90;;;;;;5031159;28;20038;-80
2023/03/06 07:15:22;;;;;;;4.47;1.80;;;2.30;99.90;;;;;;5031095;28;20415;-80
2023/03/06 07:17:48;;;;;;;6.22;1.50;;;1.40;99.90;;;;;;5032210;28;20053;-80
2023/03/06 07:20:14;;;;;;;5.00;2.13;;;1.90;99.90;;;;;;5014286;28;20060;-80
2023/03/06 07:22:40;;;;;;;4.63;2.58;;;1.20;99.90;;;;;;5014510;28;20550;-80
2023/03/06 07:25:06;;;;;;;6.07;3.40;;;1.10;99.90;;;;;;5032175;28;20046;-79
2023/03/06 07:27:32;;;;;;;5.47;3.65;;;1.00;99.90;;;;;;5030820;28;20041;-79
2023/03/06 07:29:58;;;;;;;5.07;2.50;;;0.90;99.90;;;;;;5030820;28;20048;-78
2023/03/06 07:32:23;;;;;;;6.88;2.38;;;1.10;99.90;;;;;;5014770;28;20055;-78
2023/03/06 07:34:49;;;;;;;4.18;1.55;;;2.20;99.90;;;;;;5031163;28;20068;-78
2023/03/06 07:37:15;;;;;;;4.15;1.85;;;1.40;99.90;;;;;;5027774;28;20049;-78
2023/03/06 07:39:41;;;;;;;3.33;1.65;;;1.00;99.90;;;;;;5011333;28;20121;-78
2023/03/06 07:42:06;;;;;;;3.85;1.75;;;2.30;99.90;;;;;;5011006;28;20078;-78
2023/03/06 07:44:36;;;;;;;3.42;1.58;;;0.90;99.90;;;;;;4994759;28;20535;-78
2023/03/06 07:47:03;;;;;;;4.03;1.73;;;2.20;99.90;;;;;;5012019;28;20046;-78
2023/03/06 07:49:30;;;;;;;3.63;1.15;;;1.40;99.90;;;;;;5011142;28;20487;-79
2023/03/06 07:51:56;;;;;;;5.55;1.13;;;1.70;99.90;;;;;;5011885;28;20034;-78
2023/03/06 07:54:22;;;;;;;3.92;1.27;;;1.90;99.90;;;;;;5012065;28;20057;-78
2023/03/06 07:56:51;;;;;;;5.10;1.77;;;1.00;99.90;;;;;;5010186;28;20033;-78
2023/03/06 07:59:16;;;;;;;3.08;1.40;;;2.20;99.90;;;;;;5010913;28;20100;-78
2023/03/06 08:01:42;;;;;;;3.78;1.20;;;1.20;99.90;;;;;;5011827;28;22394;-77
2023/03/06 08:04:08;;;;;;;3.78;1.48;;;2.40;99.90;;;;;;5011725;28;20042;-78
2023/03/06 08:06:34;;;;;;;2.90;1.20;;;1.00;99.90;;;;;;5010528;28;20046;-78
2023/03/06 08:08:59;;;;;;;3.90;1.52;;;1.10;99.90;;;;;;5011035;28;20492;-78
2023/03/06 08:11:27;;;;;;;2.60;1.20;;;2.00;99.90;;;;;;5012087;28;20053;-78
2023/03/06 08:13:55;;;;;;;5.05;1.48;;;1.00;99.90;;;;;;5011658;28;20057;-78
2023/03/06 08:16:23;;;;;;;3.20;1.58;;;1.70;99.90;;;;;;5010587;28;20371;-79
2023/03/06 08:18:49;;;;;;;8.52;1.70;;;2.20;99.90;;;;;;5012942;28;20101;-77
2023/03/06 08:21:18;;;;;;;3.95;1.83;;;1.40;99.90;;;;;;5031181;28;20057;-79
2023/03/06 08:23:44;;;;;;;4.63;2.40;;;1.10;99.90;;;;;;5031064;28;20083;-78
2023/03/06 08:26:19;;;;;;;4.18;1.65;;;2.00;99.90;;;;;;5013343;28;20478;-77
2023/03/06 08:28:45;;;;;;;4.72;1.90;;;1.30;99.90;;;;;;5013717;28;20042;-77
2023/03/06 08:31:15;;;;;;;3.35;1.92;;;2.50;99.90;;;;;;5030918;28;20060;-75
2023/03/06 08:33:41;;;;;;;10.30;3.03;;;1.30;99.90;;;;;;5031248;28;20429;-76
2023/03/06 08:36:07;;;;;;;2.65;1.52;;;1.60;99.90;;;;;;5031447;28;20037;-74
2023/03/06 08:38:33;;;;;;;4.32;1.38;;;1.60;99.90;;;;;;5030448;28;20050;-74
2023/03/06 08:40:58;;;;;;;2.80;1.40;;;2.10;99.90;;;;;;5031028;28;20367;-74
2023/03/06 08:43:24;;;;;;;5.18;2.42;;;2.20;99.90;;;;;;5030917;28;20126;-74
2023/03/06 08:45:54;;;;;;;4.78;1.60;;;2.90;99.90;;;;;;5013244;28;20053;-73
2023/03/06 08:48:20;;;;;;;4.03;1.25;;;2.70;99.90;;;;;;5031522;28;20041;-73
2023/03/06 08:50:45;;;;;;;2.25;1.20;;;1.80;99.90;;;;;;5017632;28;20479;-74
2023/03/06 08:53:11;;;;;;;3.20;1.65;;;2.10;99.90;;;;;;5031155;28;20041;-73
2023/03/06 08:55:37;;;;;;;4.50;1.02;;;2.30;99.90;;;;;;5030755;28;20636;-73
2023/03/06 08:58:03;;;;;;;2.83;1.10;;;2.30;99.90;;;;;;5030787;28;20081;-74
2023/03/06 09:00:33;;;;;;;2.67;1.10;;;2.00;99.90;;;;;;5013170;28;20091;-74
2023/03/06 09:02:59;;;;;;;2.25;0.90;;;2.10;99.90;;;;;;5030690;28;20086;-74
2023/03/06 09:05:25;;;;;;;2.83;0.80;;;2.20;99.90;;;;;;5030657;28;20041;-74
2023/03/06 09:07:50;;;;;;;2.55;1.40;;;2.60;99.90;;;;;;5015223;28;20048;-73
2023/03/06 09:10:19;;;;;;;4.20;0.75;;;2.20;99.90;;;;;;5015346;28;20063;-73
2023/03/06 09:12:45;;;;;;;2.47;0.90;;;2.20;99.90;;;;;;5034137;28;20040;-75
2023/03/06 09:15:11;;;;;;;3.05;1.08;;;3.30;99.90;;;;;;5016697;28;20041;-74
2023/03/06 09:17:38;;;;;;;1.83;0.80;;;2.30;99.90;;;;;;5034147;28;20359;-76
2023/03/06 09:20:08;;;;;;;4.78;0.90;;;2.20;99.90;;;;;;5033673;28;20056;-76
2023/03/06 09:22:34;;;;;;;3.28;0.90;;;2.40;99.90;;;;;;5033991;28;20077;-77
2023/03/06 09:24:59;;;;;;;2.67;1.10;;;3.50;99.90;;;;;;5016803;28;20107;-78
2023/03/06 09:27:27;;;;;;;1.48;0.70;;;2.90;99.90;;;;;;5033975;28;20041;-79
2023/03/06 09:29:53;;;;;;;2.15;0.60;;;2.80;99.90;;;;;;5016480;28;20053;-79
2023/03/06 09:32:19;;;;;;;1.42;0.43;;;4.10;99.90;;;;;;5016490;28;20128;-78
2023/03/06 09:34:45;;;;;;;1.52;0.52;;;3.20;99.90;;;;;;5034094;28;20037;-77
2023/03/06 09:37:11;;;;;;;1.08;0.50;;;3.20;99.90;;;;;;5016661;28;20462;-75
2023/03/06 09:39:36;;;;;;;1.98;0.80;;;3.10;99.90;;;;;;5042074;28;20042;-75
2023/03/06 09:42:05;;;;;;;2.40;0.50;;;3.10;99.90;;;;;;5025056;28;20047;-73
2023/03/06 09:44:34;;;;;;;1.85;0.47;;;3.10;99.90;;;;;;5042195;28;20420;-74
2023/03/06 09:47:27;;;;;;;1.77;0.60;;;4.30;99.90;;;;;;5042883;28;20050;-74
2023/03/06 09:50:09;;;;;;;2.20;0.57;;;3.30;99.90;;;;;;5042373;28;20068;-73
2023/03/06 09:52:53;;;;;;;0.82;0.60;;;3.30;99.90;;;;;;5025098;28;20045;-73
2023/03/06 09:55:23;;;;;;;2.80;0.57;;;3.30;99.90;;;;;;5043175;28;20053;-74
2023/03/06 09:58:13;;;;;;;1.08;0.57;;;3.20;99.90;;;;;;5041755;28;20069;-74
2023/03/06 10:01:06;;;;;;;3.20;0.50;;;3.40;99.90;;;;;;5040974;28;20040;-75
2023/03/06 10:03:44;;;;;;;5.17;2.23;;;3.40;99.90;;;;;;5043306;28;20048;-74
2023/03/06 10:06:29;;;;;;;2.92;0.82;;;3.40;99.90;;;;;;5043879;28;20048;-74
2023/03/06 10:09:24;;;;;;;3.90;0.95;;;3.60;99.90;;;;;;5024247;28;20090;-77
2023/03/06 10:12:05;;;;;;;0.65;0.30;;;3.50;99.90;;;;;;5024059;28;20482;-74
2023/03/06 10:14:42;;;;;;;2.40;0.55;;;3.50;99.90;;;;;;5041702;28;20037;-75
2023/03/06 10:17:24;;;;;;;0.60;0.35;;;4.40;99.90;;;;;;5040431;28;20046;-78
2023/03/06 10:19:51;;;;;;;1.20;0.40;;;4.00;99.90;;;;;;5042935;28;20049;-78
2023/03/06 10:23:00;;;;;;;0.75;0.40;;;3.70;99.90;;;;;;5028407;27;20113;-79
2023/03/06 10:25:36;;;;;;;1.48;0.43;;;3.70;99.90;;;;;;5040414;28;20044;-78
2023/03/06 10:28:14;;;;;;;2.10;0.35;;;4.60;99.90;;;;;;5057670;27;20124;-75
2023/03/06 10:30:58;;;;;;;0.98;0.40;;;3.70;99.90;;;;;;5047244;28;20044;-78
2023/03/06 10:33:36;;;;;;;2.28;0.30;;;4.30;99.90;;;;;;5045402;28;20116;-78
2023/03/06 10:36:03;;;;;;;1.38;0.50;;;3.60;99.90;;;;;;5025790;28;20045;-77
2023/03/06 10:38:29;;;;;;;1.40;0.50;;;3.70;99.90;;;;;;5045351;28;20097;-76
2023/03/06 10:41:20;;;;;;;2.75;0.40;;;4.00;99.90;;;;;;5045138;28;20366;-77
2023/03/06 10:43:58;;;;;;;1.23;0.30;;;3.90;99.90;;;;;;5027599;28;20056;-77
2023/03/06 10:46:42;;;;;;;2.10;0.43;;;3.90;99.90;;;;;;5029521;28;20079;-77
2023/03/06 10:49:28;;;;;;;2.67;0.35;;;3.70;99.90;;;;;;5045592;28;20073;-77
2023/03/06 10:52:08;;;;;;;0.88;0.30;;;4.60;99.90;;;;;;5042782;28;20037;-77
2023/03/06 10:54:40;;;;;;;1.38;1.27;;;3.80;99.90;;;;;;5027825;28;20471;-76
2023/03/06 10:57:28;;;;;;;3.10;0.20;;;4.00;99.90;;;;;;5045334;28;20044;-76
2023/03/06 11:00:22;;;;;;;0.57;0.20;;;3.90;99.90;;;;;;5027005;28;20151;-76
2023/03/06 11:03:05;;;;;;;1.65;0.20;;;4.00;99.90;;;;;;5057168;27;20040;-76
2023/03/06 11:05:31;;;;;;;1.75;0.47;;;4.00;99.90;;;;;;5010133;28;20470;-76
2023/03/06 11:07:59;;;;;;;0.50;0.10;;;4.00;99.90;;;;;;5026897;28;20048;-76
2023/03/06 11:10:25;;;;;;;1.30;0.38;;;4.20;99.90;;;;;;5043789;28;20094;-76
2023/03/06 11:13:15;;;;;;;2.22;0.20;;;4.10;99.90;;;;;;5044045;28;20053;-76
2023/03/06 11:16:12;;;;;;;0.13;0.10;;;4.00;99.90;;;;;;5024508;28;20048;-76
2023/03/06 11:18:41;;;;;;;2.55;0.30;;;4.00;99.90;;;;;;5008192;28;20084;-75
2023/03/06 11:21:28;;;;;;;0.93;0.30;;;4.20;99.90;;;;;;5045759;28;20060;-76
2023/03/06 11:24:10;;;;;;;1.23;0.20;;;4.10;99.90;;;;;;5024575;28;20363;-74
2023/03/06 11:26:58;;;;;;;0.70;0.20;;;4.20;99.90;;;;;;5044639;28;20097;-73
2023/03/06 11:29:42;;;;;;;0.73;0.20;;;4.10;99.90;;;;;;5045753;28;20041;-74
2023/03/06 11:32:18;;;;;;;1.30;0.20;;;4.20;99.90;;;;;;5041174;28;20045;-74
2023/03/06 11:35:12;;;;;;;0.38;0.10;;;4.20;99.90;;;;;;5050781;28;20045;-74
2023/03/06 11:38:03;;;;;;;1.50;0.20;;;4.90;99.90;;;;;;5008513;28;20505;-74
2023/03/06 11:40:40;;;;;;;0.40;0.13;;;4.30;99.90;;;;;;5050899;28;20049;-74
2023/03/06 11:43:30;;;;;;;0.30;0.20;;;4.30;99.90;;;;;;5036225;28;20386;-74
2023/03/06 11:46:03;;;;;;;1.58;0.30;;;4.50;99.90;;;;;;5047378;28;20041;-74
2023/03/06 11:48:53;;;;;;;2.25;0.13;;;4.50;99.90;;;;;;5029363;28;20045;-73
2023/03/06 11:51:30;;;;;;;1.85;0.20;;;4.40;99.90;;;;;;4999388;28;20092;-73
2023/03/06 11:53:58;;;;;;;3.70;0.30;;;4.60;99.90;;;;;;5041688;28;20056;-73
2023/03/06 11:56:39;;;;;;;0.60;0.15;;;4.50;99.90;;;;;;5050319;28;20048;-74
2023/03/06 11:59:35;;;;;;;1.48;0.10;;;4.70;99.90;;;;;;5017255;28;20048;-74
2023/03/06 12:02:39;;;;;;;1.45;0.20;;;4.40;99.90;;;;;;5050262;28;20045;-73
2023/03/06 12:05:19;;;;;;;0.20;0.10;;;4.30;99.90;;;;;;5016426;28;20086;-73
2023/03/06 12:08:16;;;;;;;1.20;0.20;;;4.80;99.90;;;;;;5047335;28;20045;-73
2023/03/06 12:10:56;;;;;;;0.50;0.10;;;4.40;99.90;;;;;;5042149;28;20061;-73
2023/03/06 12:13:43;;;;;;;1.27;0.20;;;4.80;99.90;;;;;;5043540;28;20049;-74
2023/03/06 12:16:34;;;;;;;1.98;0.17;;;4.50;99.90;;;;;;5040884;28;20281;-74
2023/03/06 12:19:31;;;;;;;0.88;0.15;;;4.50;99.90;;;;;;5042757;28;20438;-74
2023/03/06 12:22:12;;;;;;;0.88;0.10;;;4.50;99.90;;;;;;5041575;28;20044;-74
2023/03/06 12:25:16;;;;;;;1.50;0.20;;;4.60;99.90;;;;;;5039587;28;20037;-74
2023/03/06 12:28:00;;;;;;;0.43;0.20;;;4.20;99.90;;;;;;5042641;28;20041;-74
2023/03/06 12:30:40;;;;;;;;;;;4.70;99.90;;;;;;5040597;28;20046;-74
2023/03/06 12:33:33;;;;;;;1.80;0.28;;;4.70;99.90;;;;;;5039337;28;19917;-73
2023/03/06 12:36:15;;;;;;;3.75;0.30;;;4.70;99.90;;;;;;5023542;28;20488;-74
2023/03/06 12:38:41;;;;;;;0.85;0.20;;;4.70;99.90;;;;;;5040838;28;20485;-74
2023/03/06 12:41:23;;;;;;;0.50;0.10;;;4.70;99.90;;;;;;5048926;28;20041;-75
2023/03/06 12:44:08;;;;;;;1.65;0.13;;;4.70;99.90;;;;;;5043893;28;20037;-74
2023/03/06 12:46:48;;;;;;;0.25;0.10;;;4.70;99.90;;;;;;5034056;28;20044;-73
2023/03/06 12:49:25;;;;;;;2.78;0.20;;;5.50;99.90;;;;;;5049928;28;20071;-73
2023/03/06 12:51:54;;;;;;;0.47;0.20;;;4.90;99.90;;;;;;5032128;28;20033;-73
2023/03/06 12:54:24;;;;;;;0.73;0.25;;;5.30;99.90;;;;;;5049836;28;20057;-73
2023/03/06 12:56:51;;;;;;;0.75;0.20;;;4.90;99.90;;;;;;5048986;28;20052;-73
2023/03/06 12:59:42;;;;;;;1.08;0.20;;;5.20;99.90;;;;;;5031374;28;20101;-73
2023/03/06 13:02:46;;;;;;;0.22;0.05;;;5.10;99.90;;;;;;5031337;28;20044;-72
2023/03/06 13:05:26;;;;;;;1.40;0.17;;;5.20;99.90;;;;;;5038256;28;20052;-72
2023/03/06 13:08:36;;;;;;;1.38;0.20;;;5.20;99.90;;;;;;5029011;28;20060;-73
2023/03/06 13:11:17;;;;;;;0.52;0.10;;;5.30;99.90;;;;;;5050480;28;20041;-72
2023/03/06 13:13:46;;;;;;;1.83;0.20;;;5.30;99.90;;;;;;5064927;28;20037;-71
2023/03/06 13:16:14;;;;;;;1.38;0.10;;;5.30;99.90;;;;;;5057287;28;20152;-71